sensor_id;sensor_type;location;lat;lon;timestamp;P1;durP1;ratioP1;P2;durP2;ratioP2
23728;SDS011;12045;60.214;24.724;2023-05-29T00:02:11;10.63;;;5.07;;
23728;SDS011;12045;60.214;24.724;2023-05-29T00:04:39;12.70;;;4.82;;
23728;SDS011;12045;60.214;24.724;2023-05-29T00:07:07;12.30;;;4.45;;
23728;SDS011;12045;60.214;24.724;2023-05-29T00:09:36;8.02;;;3.95;;
23728;SDS011;12045;60.214;24.724;2023-05-29T00:12:04;10.80;;;4.40;;
23728;SDS011;12045;60.214;24.724;2023-05-29T00:14:32;13.32;;;4.80;;
23728;SDS011;12045;60.214;24.724;2023-05-29T00:17:00;10.63;;;4.35;;
23728;SDS011;12045;60.214;24.724;2023-05-29T00:19:29;14.48;;;4.97;;
23728;SDS011;12045;60.214;24.724;2023-05-29T00:21:57;12.43;;;4.88;;
23728;SDS011;12045;60.214;24.724;2023-05-29T00:24:25;13.60;;;5.32;;
23728;SDS011;12045;60.214;24.724;2023-05-29T00:26:53;12.60;;;4.30;;
23728;SDS011;12045;60.214;24.724;2023-05-29T00:29:20;14.50;;;5.07;;
23728;SDS011;12045;60.214;24.724;2023-05-29T00:31:49;9.27;;;4.50;;
23728;SDS011;12045;60.214;24.724;2023-05-29T00:34:21;13.20;;;4.70;;
23728;SDS011;12045;60.214;24.724;2023-05-29T00:36:49;10.25;;;4.53;;
23728;SDS011;12045;60.214;24.724;2023-05-29T00:39:17;7.32;;;4.53;;
23728;SDS011;12045;60.214;24.724;2023-05-29T00:41:45;12.65;;;4.75;;
23728;SDS011;12045;60.214;24.724;2023-05-29T00:44:18;7.60;;;3.80;;
23728;SDS011;12045;60.214;24.724;2023-05-29T00:46:46;11.60;;;4.30;;
23728;SDS011;12045;60.214;24.724;2023-05-29T00:49:14;11.15;;;4.43;;
23728;SDS011;12045;60.214;24.724;2023-05-29T00:51:42;11.55;;;4.20;;
23728;SDS011;12045;60.214;24.724;2023-05-29T00:54:14;9.23;;;4.30;;
23728;SDS011;12045;60.214;24.724;2023-05-29T00:56:44;8.43;;;3.90;;
23728;SDS011;12045;60.214;24.724;2023-05-29T00:59:12;8.35;;;4.07;;
23728;SDS011;12045;60.214;24.724;2023-05-29T01:01:40;7.50;;;4.22;;
23728;SDS011;12045;60.214;24.724;2023-05-29T01:04:09;9.20;;;3.88;;
23728;SDS011;12045;60.214;24.724;2023-05-29T01:06:39;9.63;;;4.20;;
23728;SDS011;12045;60.214;24.724;2023-05-29T01:09:07;8.45;;;4.22;;
23728;SDS011;12045;60.214;24.724;2023-05-29T01:11:39;7.38;;;3.63;;
23728;SDS011;12045;60.214;24.724;2023-05-29T01:14:10;10.55;;;3.75;;
23728;SDS011;12045;60.214;24.724;2023-05-29T01:16:50;9.25;;;4.15;;
23728;SDS011;12045;60.214;24.724;2023-05-29T01:19:27;10.82;;;4.10;;
23728;SDS011;12045;60.214;24.724;2023-05-29T01:22:03;10.43;;;3.83;;
23728;SDS011;12045;60.214;24.724;2023-05-29T01:33:13;8.05;;;3.78;;
23728;SDS011;12045;60.214;24.724;2023-05-29T01:35:41;9.32;;;3.20;;
23728;SDS011;12045;60.214;24.724;2023-05-29T01:38:09;6.05;;;3.55;;
23728;SDS011;12045;60.214;24.724;2023-05-29T01:40:37;6.53;;;3.38;;
23728;SDS011;12045;60.214;24.724;2023-05-29T01:43:05;8.18;;;3.63;;
23728;SDS011;12045;60.214;24.724;2023-05-29T01:45:33;9.88;;;3.80;;
23728;SDS011;12045;60.214;24.724;2023-05-29T01:48:01;5.18;;;3.20;;
23728;SDS011;12045;60.214;24.724;2023-05-29T01:50:29;5.88;;;3.22;;
23728;SDS011;12045;60.214;24.724;2023-05-29T01:52:58;5.53;;;3.05;;
23728;SDS011;12045;60.214;24.724;2023-05-29T01:55:25;6.75;;;3.22;;
23728;SDS011;12045;60.214;24.724;2023-05-29T01:57:53;5.32;;;3.03;;
23728;SDS011;12045;60.214;24.724;2023-05-29T02:00:22;5.28;;;3.03;;
23728;SDS011;12045;60.214;24.724;2023-05-29T02:02:50;6.03;;;3.22;;
23728;SDS011;12045;60.214;24.724;2023-05-29T02:05:18;3.95;;;2.78;;
23728;SDS011;12045;60.214;24.724;2023-05-29T02:07:46;5.55;;;3.15;;
23728;SDS011;12045;60.214;24.724;2023-05-29T02:10:14;4.22;;;2.65;;
23728;SDS011;12045;60.214;24.724;2023-05-29T02:12:42;7.32;;;3.00;;
23728;SDS011;12045;60.214;24.724;2023-05-29T02:15:10;5.63;;;2.92;;
23728;SDS011;12045;60.214;24.724;2023-05-29T02:17:38;5.65;;;3.05;;
23728;SDS011;12045;60.214;24.724;2023-05-29T02:20:06;4.43;;;2.70;;
23728;SDS011;12045;60.214;24.724;2023-05-29T02:22:34;5.35;;;2.80;;
23728;SDS011;12045;60.214;24.724;2023-05-29T02:25:01;6.32;;;3.17;;
23728;SDS011;12045;60.214;24.724;2023-05-29T02:30:23;3.53;;;2.47;;
23728;SDS011;12045;60.214;24.724;2023-05-29T02:32:51;3.67;;;2.05;;
23728;SDS011;12045;60.214;24.724;2023-05-29T02:35:21;5.13;;;2.20;;
23728;SDS011;12045;60.214;24.724;2023-05-29T02:37:50;5.65;;;2.30;;
23728;SDS011;12045;60.214;24.724;2023-05-29T02:40:18;2.90;;;2.03;;
23728;SDS011;12045;60.214;24.724;2023-05-29T02:42:46;2.70;;;2.15;;
23728;SDS011;12045;60.214;24.724;2023-05-29T02:45:14;4.38;;;2.10;;
23728;SDS011;12045;60.214;24.724;2023-05-29T02:47:42;3.50;;;2.20;;
23728;SDS011;12045;60.214;24.724;2023-05-29T02:50:10;4.63;;;2.20;;
23728;SDS011;12045;60.214;24.724;2023-05-29T02:52:37;2.50;;;1.92;;
23728;SDS011;12045;60.214;24.724;2023-05-29T02:55:06;6.35;;;2.38;;
23728;SDS011;12045;60.214;24.724;2023-05-29T02:57:34;3.15;;;2.00;;
23728;SDS011;12045;60.214;24.724;2023-05-29T03:00:02;3.05;;;2.15;;
23728;SDS011;12045;60.214;24.724;2023-05-29T03:02:34;4.18;;;2.00;;
23728;SDS011;12045;60.214;24.724;2023-05-29T03:05:02;3.53;;;1.90;;
23728;SDS011;12045;60.214;24.724;2023-05-29T03:07:30;2.40;;;1.70;;
23728;SDS011;12045;60.214;24.724;2023-05-29T03:09:59;4.00;;;1.70;;
23728;SDS011;12045;60.214;24.724;2023-05-29T03:12:27;5.07;;;1.92;;
23728;SDS011;12045;60.214;24.724;2023-05-29T03:14:56;2.75;;;1.83;;
23728;SDS011;12045;60.214;24.724;2023-05-29T03:17:23;2.50;;;1.70;;
23728;SDS011;12045;60.214;24.724;2023-05-29T03:19:52;2.90;;;1.90;;
23728;SDS011;12045;60.214;24.724;2023-05-29T03:22:20;2.30;;;1.67;;
23728;SDS011;12045;60.214;24.724;2023-05-29T03:24:48;2.03;;;1.75;;
23728;SDS011;12045;60.214;24.724;2023-05-29T03:27:15;2.70;;;1.75;;
23728;SDS011;12045;60.214;24.724;2023-05-29T03:29:43;2.75;;;1.98;;
23728;SDS011;12045;60.214;24.724;2023-05-29T03:32:11;2.83;;;2.00;;
23728;SDS011;12045;60.214;24.724;2023-05-29T03:34:39;4.20;;;1.67;;
23728;SDS011;12045;60.214;24.724;2023-05-29T03:37:07;2.55;;;1.77;;
23728;SDS011;12045;60.214;24.724;2023-05-29T03:39:34;3.65;;;1.80;;
23728;SDS011;12045;60.214;24.724;2023-05-29T03:42:02;2.42;;;1.67;;
23728;SDS011;12045;60.214;24.724;2023-05-29T03:44:31;2.83;;;1.60;;
23728;SDS011;12045;60.214;24.724;2023-05-29T03:46:58;2.97;;;1.70;;
23728;SDS011;12045;60.214;24.724;2023-05-29T03:49:26;2.08;;;1.88;;
23728;SDS011;12045;60.214;24.724;2023-05-29T03:51:54;3.17;;;1.75;;
23728;SDS011;12045;60.214;24.724;2023-05-29T03:54:22;2.90;;;1.75;;
23728;SDS011;12045;60.214;24.724;2023-05-29T03:56:50;2.83;;;1.98;;
23728;SDS011;12045;60.214;24.724;2023-05-29T03:59:18;4.65;;;1.90;;
23728;SDS011;12045;60.214;24.724;2023-05-29T04:01:46;2.03;;;1.42;;
23728;SDS011;12045;60.214;24.724;2023-05-29T04:04:13;2.25;;;1.80;;
23728;SDS011;12045;60.214;24.724;2023-05-29T04:06:41;3.40;;;2.00;;
23728;SDS011;12045;60.214;24.724;2023-05-29T04:09:09;1.90;;;1.70;;
23728;SDS011;12045;60.214;24.724;2023-05-29T04:11:37;4.07;;;1.90;;
23728;SDS011;12045;60.214;24.724;2023-05-29T04:14:06;2.28;;;1.77;;
23728;SDS011;12045;60.214;24.724;2023-05-29T04:16:33;3.47;;;1.92;;
23728;SDS011;12045;60.214;24.724;2023-05-29T04:19:01;4.25;;;1.65;;
23728;SDS011;12045;60.214;24.724;2023-05-29T04:21:29;4.65;;;1.70;;
23728;SDS011;12045;60.214;24.724;2023-05-29T04:23:59;2.05;;;1.40;;
23728;SDS011;12045;60.214;24.724;2023-05-29T04:26:27;3.45;;;1.70;;
23728;SDS011;12045;60.214;24.724;2023-05-29T04:28:55;2.05;;;1.40;;
23728;SDS011;12045;60.214;24.724;2023-05-29T04:31:26;3.65;;;1.58;;
23728;SDS011;12045;60.214;24.724;2023-05-29T04:33:54;2.28;;;1.42;;
23728;SDS011;12045;60.214;24.724;2023-05-29T04:36:23;2.60;;;1.42;;
23728;SDS011;12045;60.214;24.724;2023-05-29T04:38:52;4.20;;;1.50;;
23728;SDS011;12045;60.214;24.724;2023-05-29T04:41:21;2.17;;;1.40;;
23728;SDS011;12045;60.214;24.724;2023-05-29T04:43:50;2.05;;;1.42;;
23728;SDS011;12045;60.214;24.724;2023-05-29T04:46:18;2.13;;;1.13;;
23728;SDS011;12045;60.214;24.724;2023-05-29T04:48:46;2.13;;;1.30;;
23728;SDS011;12045;60.214;24.724;2023-05-29T04:51:14;2.08;;;1.45;;
23728;SDS011;12045;60.214;24.724;2023-05-29T04:53:43;2.22;;;1.60;;
23728;SDS011;12045;60.214;24.724;2023-05-29T04:56:12;2.72;;;1.40;;
23728;SDS011;12045;60.214;24.724;2023-05-29T04:58:40;1.98;;;1.30;;
23728;SDS011;12045;60.214;24.724;2023-05-29T05:01:07;2.03;;;1.30;;
23728;SDS011;12045;60.214;24.724;2023-05-29T05:03:36;1.50;;;1.23;;
23728;SDS011;12045;60.214;24.724;2023-05-29T05:06:04;1.67;;;1.42;;
23728;SDS011;12045;60.214;24.724;2023-05-29T05:08:34;2.33;;;1.40;;
23728;SDS011;12045;60.214;24.724;2023-05-29T05:11:02;1.60;;;1.20;;
23728;SDS011;12045;60.214;24.724;2023-05-29T05:13:33;3.40;;;1.33;;
23728;SDS011;12045;60.214;24.724;2023-05-29T05:16:01;2.00;;;1.02;;
23728;SDS011;12045;60.214;24.724;2023-05-29T05:18:29;2.97;;;1.10;;
23728;SDS011;12045;60.214;24.724;2023-05-29T05:20:57;3.75;;;1.10;;
23728;SDS011;12045;60.214;24.724;2023-05-29T05:23:25;1.33;;;1.02;;
23728;SDS011;12045;60.214;24.724;2023-05-29T05:25:52;1.25;;;1.00;;
23728;SDS011;12045;60.214;24.724;2023-05-29T05:28:20;3.17;;;1.08;;
23728;SDS011;12045;60.214;24.724;2023-05-29T05:30:48;1.95;;;1.35;;
23728;SDS011;12045;60.214;24.724;2023-05-29T05:33:16;1.60;;;1.20;;
23728;SDS011;12045;60.214;24.724;2023-05-29T05:35:44;2.38;;;1.10;;
23728;SDS011;12045;60.214;24.724;2023-05-29T05:38:12;3.28;;;1.50;;
23728;SDS011;12045;60.214;24.724;2023-05-29T05:40:39;1.20;;;1.10;;
23728;SDS011;12045;60.214;24.724;2023-05-29T05:43:07;1.85;;;1.20;;
23728;SDS011;12045;60.214;24.724;2023-05-29T05:45:35;1.73;;;1.02;;
23728;SDS011;12045;60.214;24.724;2023-05-29T05:48:09;1.00;;;0.88;;
23728;SDS011;12045;60.214;24.724;2023-05-29T05:50:37;1.40;;;1.00;;
23728;SDS011;12045;60.214;24.724;2023-05-29T05:53:05;1.95;;;0.80;;
23728;SDS011;12045;60.214;24.724;2023-05-29T05:55:32;0.70;;;0.70;;
23728;SDS011;12045;60.214;24.724;2023-05-29T05:58:00;1.67;;;0.80;;
23728;SDS011;12045;60.214;24.724;2023-05-29T06:00:28;1.10;;;1.00;;
23728;SDS011;12045;60.214;24.724;2023-05-29T06:02:56;2.10;;;1.10;;
23728;SDS011;12045;60.214;24.724;2023-05-29T06:05:26;1.33;;;1.00;;
23728;SDS011;12045;60.214;24.724;2023-05-29T06:07:55;1.02;;;0.90;;
23728;SDS011;12045;60.214;24.724;2023-05-29T06:10:23;2.45;;;1.20;;
23728;SDS011;12045;60.214;24.724;2023-05-29T06:12:50;2.20;;;1.00;;
23728;SDS011;12045;60.214;24.724;2023-05-29T06:15:19;0.93;;;0.77;;
23728;SDS011;12045;60.214;24.724;2023-05-29T06:17:47;1.90;;;0.85;;
23728;SDS011;12045;60.214;24.724;2023-05-29T06:20:15;1.63;;;0.90;;
23728;SDS011;12045;60.214;24.724;2023-05-29T06:22:43;1.15;;;0.90;;
23728;SDS011;12045;60.214;24.724;2023-05-29T06:25:17;0.47;;;0.47;;
23728;SDS011;12045;60.214;24.724;2023-05-29T06:27:45;1.65;;;0.80;;
23728;SDS011;12045;60.214;24.724;2023-05-29T06:30:13;3.03;;;0.73;;
23728;SDS011;12045;60.214;24.724;2023-05-29T06:32:41;1.48;;;1.00;;
23728;SDS011;12045;60.214;24.724;2023-05-29T06:35:11;4.18;;;1.00;;
23728;SDS011;12045;60.214;24.724;2023-05-29T06:37:39;1.05;;;0.68;;
23728;SDS011;12045;60.214;24.724;2023-05-29T06:40:07;1.33;;;0.80;;
23728;SDS011;12045;60.214;24.724;2023-05-29T06:42:36;2.53;;;0.82;;
23728;SDS011;12045;60.214;24.724;2023-05-29T06:45:04;1.20;;;0.70;;
23728;SDS011;12045;60.214;24.724;2023-05-29T06:47:32;1.55;;;0.98;;
23728;SDS011;12045;60.214;24.724;2023-05-29T06:50:00;1.67;;;0.80;;
23728;SDS011;12045;60.214;24.724;2023-05-29T06:52:28;2.58;;;0.80;;
23728;SDS011;12045;60.214;24.724;2023-05-29T06:54:56;0.50;;;0.50;;
23728;SDS011;12045;60.214;24.724;2023-05-29T06:57:24;0.45;;;0.40;;
23728;SDS011;12045;60.214;24.724;2023-05-29T06:59:51;0.85;;;0.55;;
23728;SDS011;12045;60.214;24.724;2023-05-29T07:02:19;2.35;;;0.70;;
23728;SDS011;12045;60.214;24.724;2023-05-29T07:04:47;0.80;;;0.60;;
23728;SDS011;12045;60.214;24.724;2023-05-29T07:07:15;0.60;;;0.60;;
23728;SDS011;12045;60.214;24.724;2023-05-29T07:09:43;1.30;;;0.80;;
23728;SDS011;12045;60.214;24.724;2023-05-29T07:12:11;1.15;;;0.70;;
23728;SDS011;12045;60.214;24.724;2023-05-29T07:14:40;1.05;;;0.65;;
23728;SDS011;12045;60.214;24.724;2023-05-29T07:17:07;0.70;;;0.50;;
23728;SDS011;12045;60.214;24.724;2023-05-29T07:19:35;0.60;;;0.60;;
23728;SDS011;12045;60.214;24.724;2023-05-29T07:22:03;0.60;;;0.60;;
23728;SDS011;12045;60.214;24.724;2023-05-29T07:24:32;1.65;;;0.50;;
23728;SDS011;12045;60.214;24.724;2023-05-29T07:27:00;1.95;;;0.70;;
23728;SDS011;12045;60.214;24.724;2023-05-29T07:29:28;1.13;;;0.60;;
23728;SDS011;12045;60.214;24.724;2023-05-29T07:31:55;1.50;;;0.80;;
23728;SDS011;12045;60.214;24.724;2023-05-29T07:34:23;0.77;;;0.63;;
23728;SDS011;12045;60.214;24.724;2023-05-29T07:37:02;1.75;;;0.70;;
23728;SDS011;12045;60.214;24.724;2023-05-29T07:39:31;1.20;;;0.50;;
23728;SDS011;12045;60.214;24.724;2023-05-29T07:42:02;1.83;;;0.65;;
23728;SDS011;12045;60.214;24.724;2023-05-29T07:44:30;0.65;;;0.65;;
23728;SDS011;12045;60.214;24.724;2023-05-29T07:46:58;2.38;;;0.80;;
23728;SDS011;12045;60.214;24.724;2023-05-29T07:49:26;4.05;;;0.80;;
23728;SDS011;12045;60.214;24.724;2023-05-29T07:51:54;0.90;;;0.63;;
23728;SDS011;12045;60.214;24.724;2023-05-29T07:54:22;2.85;;;0.60;;
23728;SDS011;12045;60.214;24.724;2023-05-29T07:56:50;3.90;;;0.68;;
23728;SDS011;12045;60.214;24.724;2023-05-29T07:59:17;0.45;;;0.45;;
23728;SDS011;12045;60.214;24.724;2023-05-29T08:01:46;1.92;;;0.60;;
23728;SDS011;12045;60.214;24.724;2023-05-29T08:04:14;2.10;;;0.70;;
23728;SDS011;12045;60.214;24.724;2023-05-29T08:06:42;0.95;;;0.75;;
23728;SDS011;12045;60.214;24.724;2023-05-29T08:09:10;1.38;;;0.50;;
23728;SDS011;12045;60.214;24.724;2023-05-29T08:11:38;0.90;;;0.70;;
23728;SDS011;12045;60.214;24.724;2023-05-29T08:14:06;0.98;;;0.60;;
23728;SDS011;12045;60.214;24.724;2023-05-29T08:16:34;1.27;;;0.60;;
23728;SDS011;12045;60.214;24.724;2023-05-29T08:19:02;1.70;;;0.70;;
23728;SDS011;12045;60.214;24.724;2023-05-29T08:21:31;1.77;;;0.80;;
23728;SDS011;12045;60.214;24.724;2023-05-29T08:24:02;0.60;;;0.52;;
23728;SDS011;12045;60.214;24.724;2023-05-29T08:26:34;0.60;;;0.50;;
23728;SDS011;12045;60.214;24.724;2023-05-29T08:29:02;3.47;;;0.80;;
23728;SDS011;12045;60.214;24.724;2023-05-29T08:31:30;0.82;;;0.57;;
23728;SDS011;12045;60.214;24.724;2023-05-29T08:33:58;1.00;;;0.70;;
23728;SDS011;12045;60.214;24.724;2023-05-29T08:36:26;1.85;;;0.60;;
23728;SDS011;12045;60.214;24.724;2023-05-29T08:38:54;0.65;;;0.43;;
23728;SDS011;12045;60.214;24.724;2023-05-29T08:41:27;0.85;;;0.60;;
23728;SDS011;12045;60.214;24.724;2023-05-29T08:43:56;4.88;;;0.50;;
23728;SDS011;12045;60.214;24.724;2023-05-29T08:46:26;1.23;;;0.80;;
23728;SDS011;12045;60.214;24.724;2023-05-29T08:48:54;1.67;;;0.80;;
23728;SDS011;12045;60.214;24.724;2023-05-29T08:51:27;1.10;;;0.60;;
23728;SDS011;12045;60.214;24.724;2023-05-29T08:53:58;0.50;;;0.50;;
23728;SDS011;12045;60.214;24.724;2023-05-29T08:56:26;0.70;;;0.60;;
23728;SDS011;12045;60.214;24.724;2023-05-29T08:59:00;0.20;;;0.20;;
23728;SDS011;12045;60.214;24.724;2023-05-29T09:01:33;1.25;;;0.55;;
23728;SDS011;12045;60.214;24.724;2023-05-29T09:04:02;0.38;;;0.38;;
23728;SDS011;12045;60.214;24.724;2023-05-29T09:06:30;0.38;;;0.38;;
23728;SDS011;12045;60.214;24.724;2023-05-29T09:08:58;0.35;;;0.35;;
23728;SDS011;12045;60.214;24.724;2023-05-29T09:11:26;0.57;;;0.50;;
23728;SDS011;12045;60.214;24.724;2023-05-29T09:13:54;1.50;;;0.45;;
23728;SDS011;12045;60.214;24.724;2023-05-29T09:16:24;0.73;;;0.50;;
23728;SDS011;12045;60.214;24.724;2023-05-29T09:18:52;0.73;;;0.70;;
23728;SDS011;12045;60.214;24.724;2023-05-29T09:21:26;3.88;;;0.73;;
23728;SDS011;12045;60.214;24.724;2023-05-29T09:23:58;1.52;;;0.70;;
23728;SDS011;12045;60.214;24.724;2023-05-29T09:26:30;0.70;;;0.52;;
23728;SDS011;12045;60.214;24.724;2023-05-29T09:28:58;1.45;;;0.70;;
23728;SDS011;12045;60.214;24.724;2023-05-29T09:31:26;1.58;;;0.70;;
23728;SDS011;12045;60.214;24.724;2023-05-29T09:33:54;0.93;;;0.63;;
23728;SDS011;12045;60.214;24.724;2023-05-29T09:36:22;1.45;;;0.75;;
23728;SDS011;12045;60.214;24.724;2023-05-29T09:38:50;2.25;;;0.93;;
23728;SDS011;12045;60.214;24.724;2023-05-29T09:41:25;0.70;;;0.60;;
23728;SDS011;12045;60.214;24.724;2023-05-29T09:43:53;1.45;;;0.70;;
23728;SDS011;12045;60.214;24.724;2023-05-29T09:46:21;1.45;;;0.50;;
23728;SDS011;12045;60.214;24.724;2023-05-29T09:48:49;0.85;;;0.60;;
23728;SDS011;12045;60.214;24.724;2023-05-29T09:51:20;1.55;;;0.73;;
23728;SDS011;12045;60.214;24.724;2023-05-29T09:53:52;0.63;;;0.55;;
23728;SDS011;12045;60.214;24.724;2023-05-29T09:56:23;1.52;;;0.68;;
23728;SDS011;12045;60.214;24.724;2023-05-29T09:58:51;1.63;;;0.80;;
23728;SDS011;12045;60.214;24.724;2023-05-29T10:01:21;0.40;;;0.40;;
23728;SDS011;12045;60.214;24.724;2023-05-29T10:03:52;1.15;;;0.80;;
23728;SDS011;12045;60.214;24.724;2023-05-29T10:06:21;2.35;;;0.90;;
23728;SDS011;12045;60.214;24.724;2023-05-29T10:08:48;0.98;;;0.80;;
23728;SDS011;12045;60.214;24.724;2023-05-29T10:11:21;1.48;;;0.60;;
23728;SDS011;12045;60.214;24.724;2023-05-29T10:13:54;1.70;;;0.60;;
23728;SDS011;12045;60.214;24.724;2023-05-29T10:16:24;0.47;;;0.47;;
23728;SDS011;12045;60.214;24.724;2023-05-29T10:18:54;0.60;;;0.50;;
23728;SDS011;12045;60.214;24.724;2023-05-29T10:21:26;3.78;;;0.80;;
23728;SDS011;12045;60.214;24.724;2023-05-29T10:23:54;2.75;;;0.70;;
23728;SDS011;12045;60.214;24.724;2023-05-29T10:26:27;1.15;;;0.70;;
23728;SDS011;12045;60.214;24.724;2023-05-29T10:31:30;1.50;;;0.95;;
23728;SDS011;12045;60.214;24.724;2023-05-29T10:34:14;2.22;;;0.70;;
23728;SDS011;12045;60.214;24.724;2023-05-29T10:36:51;1.05;;;0.57;;
23728;SDS011;12045;60.214;24.724;2023-05-29T10:39:21;0.65;;;0.60;;
23728;SDS011;12045;60.214;24.724;2023-05-29T10:41:49;1.08;;;0.55;;
23728;SDS011;12045;60.214;24.724;2023-05-29T10:47:01;1.15;;;0.80;;
23728;SDS011;12045;60.214;24.724;2023-05-29T10:49:29;1.63;;;0.70;;
23728;SDS011;12045;60.214;24.724;2023-05-29T10:51:58;1.48;;;0.90;;
23728;SDS011;12045;60.214;24.724;2023-05-29T10:54:26;0.70;;;0.70;;
23728;SDS011;12045;60.214;24.724;2023-05-29T10:56:55;2.47;;;1.00;;
23728;SDS011;12045;60.214;24.724;2023-05-29T10:59:23;2.10;;;0.70;;
23728;SDS011;12045;60.214;24.724;2023-05-29T11:01:54;1.15;;;1.05;;
23728;SDS011;12045;60.214;24.724;2023-05-29T11:06:53;1.08;;;0.75;;
23728;SDS011;12045;60.214;24.724;2023-05-29T11:12:52;1.65;;;0.68;;
23728;SDS011;12045;60.214;24.724;2023-05-29T11:15:06;4.22;;;1.13;;
23728;SDS011;12045;60.214;24.724;2023-05-29T11:20:06;2.03;;;0.60;;
23728;SDS011;12045;60.214;24.724;2023-05-29T11:25:13;1.65;;;0.68;;
23728;SDS011;12045;60.214;24.724;2023-05-29T11:27:44;1.92;;;0.57;;
23728;SDS011;12045;60.214;24.724;2023-05-29T11:30:12;1.30;;;0.70;;
23728;SDS011;12045;60.214;24.724;2023-05-29T11:32:41;0.60;;;0.55;;
23728;SDS011;12045;60.214;24.724;2023-05-29T11:35:11;0.40;;;0.40;;
23728;SDS011;12045;60.214;24.724;2023-05-29T11:37:41;0.70;;;0.70;;
23728;SDS011;12045;60.214;24.724;2023-05-29T11:40:15;1.98;;;0.80;;
23728;SDS011;12045;60.214;24.724;2023-05-29T11:42:43;1.63;;;1.08;;
23728;SDS011;12045;60.214;24.724;2023-05-29T11:45:16;1.77;;;0.70;;
23728;SDS011;12045;60.214;24.724;2023-05-29T11:47:52;0.60;;;0.60;;
23728;SDS011;12045;60.214;24.724;2023-05-29T11:50:27;1.35;;;0.88;;
23728;SDS011;12045;60.214;24.724;2023-05-29T11:52:56;1.20;;;0.65;;
23728;SDS011;12045;60.214;24.724;2023-05-29T11:55:25;0.93;;;0.70;;
23728;SDS011;12045;60.214;24.724;2023-05-29T11:57:59;0.88;;;0.75;;
23728;SDS011;12045;60.214;24.724;2023-05-29T12:00:32;2.40;;;0.88;;
23728;SDS011;12045;60.214;24.724;2023-05-29T12:03:00;3.72;;;0.93;;
23728;SDS011;12045;60.214;24.724;2023-05-29T12:05:31;2.50;;;1.08;;
23728;SDS011;12045;60.214;24.724;2023-05-29T12:07:59;1.23;;;0.68;;
23728;SDS011;12045;60.214;24.724;2023-05-29T12:10:31;1.35;;;0.60;;
23728;SDS011;12045;60.214;24.724;2023-05-29T12:12:59;1.88;;;0.70;;
23728;SDS011;12045;60.214;24.724;2023-05-29T12:15:28;1.48;;;0.70;;
23728;SDS011;12045;60.214;24.724;2023-05-29T12:17:55;1.45;;;0.80;;
23728;SDS011;12045;60.214;24.724;2023-05-29T12:20:25;2.45;;;0.65;;
23728;SDS011;12045;60.214;24.724;2023-05-29T12:22:54;1.95;;;0.50;;
23728;SDS011;12045;60.214;24.724;2023-05-29T12:25:27;2.47;;;0.65;;
23728;SDS011;12045;60.214;24.724;2023-05-29T12:27:55;0.50;;;0.50;;
23728;SDS011;12045;60.214;24.724;2023-05-29T12:30:24;1.17;;;0.70;;
23728;SDS011;12045;60.214;24.724;2023-05-29T12:32:55;0.98;;;0.70;;
23728;SDS011;12045;60.214;24.724;2023-05-29T12:35:24;2.05;;;0.60;;
23728;SDS011;12045;60.214;24.724;2023-05-29T12:37:53;1.67;;;0.50;;
23728;SDS011;12045;60.214;24.724;2023-05-29T12:40:29;1.60;;;0.70;;
23728;SDS011;12045;60.214;24.724;2023-05-29T12:42:58;1.98;;;0.70;;
23728;SDS011;12045;60.214;24.724;2023-05-29T12:45:29;2.80;;;0.57;;
23728;SDS011;12045;60.214;24.724;2023-05-29T12:48:04;0.88;;;0.50;;
23728;SDS011;12045;60.214;24.724;2023-05-29T12:50:33;1.83;;;0.80;;
23728;SDS011;12045;60.214;24.724;2023-05-29T12:53:09;1.55;;;0.80;;
23728;SDS011;12045;60.214;24.724;2023-05-29T12:55:40;1.42;;;0.80;;
23728;SDS011;12045;60.214;24.724;2023-05-29T12:58:09;0.75;;;0.70;;
23728;SDS011;12045;60.214;24.724;2023-05-29T13:00:38;0.90;;;0.68;;
23728;SDS011;12045;60.214;24.724;2023-05-29T13:03:07;1.60;;;0.80;;
23728;SDS011;12045;60.214;24.724;2023-05-29T13:05:36;1.15;;;0.63;;
23728;SDS011;12045;60.214;24.724;2023-05-29T13:08:04;0.57;;;0.52;;
23728;SDS011;12045;60.214;24.724;2023-05-29T13:10:34;0.50;;;0.50;;
23728;SDS011;12045;60.214;24.724;2023-05-29T13:13:02;2.83;;;0.70;;
23728;SDS011;12045;60.214;24.724;2023-05-29T13:15:30;2.10;;;0.80;;
23728;SDS011;12045;60.214;24.724;2023-05-29T13:18:00;0.75;;;0.60;;
23728;SDS011;12045;60.214;24.724;2023-05-29T13:20:28;1.08;;;0.70;;
23728;SDS011;12045;60.214;24.724;2023-05-29T13:22:57;0.70;;;0.65;;
23728;SDS011;12045;60.214;24.724;2023-05-29T13:25:25;0.60;;;0.50;;
23728;SDS011;12045;60.214;24.724;2023-05-29T13:27:53;0.77;;;0.60;;
23728;SDS011;12045;60.214;24.724;2023-05-29T13:30:21;0.95;;;0.63;;
23728;SDS011;12045;60.214;24.724;2023-05-29T13:32:50;2.17;;;0.68;;
23728;SDS011;12045;60.214;24.724;2023-05-29T13:35:19;0.82;;;0.40;;
23728;SDS011;12045;60.214;24.724;2023-05-29T13:37:47;3.22;;;0.88;;
23728;SDS011;12045;60.214;24.724;2023-05-29T13:40:15;0.85;;;0.70;;
23728;SDS011;12045;60.214;24.724;2023-05-29T13:42:43;1.60;;;0.70;;
23728;SDS011;12045;60.214;24.724;2023-05-29T13:45:11;1.05;;;0.68;;
23728;SDS011;12045;60.214;24.724;2023-05-29T13:47:40;1.25;;;0.57;;
23728;SDS011;12045;60.214;24.724;2023-05-29T13:50:08;0.98;;;0.60;;
23728;SDS011;12045;60.214;24.724;2023-05-29T13:52:36;1.70;;;0.52;;
23728;SDS011;12045;60.214;24.724;2023-05-29T13:55:04;1.15;;;0.65;;
23728;SDS011;12045;60.214;24.724;2023-05-29T13:57:36;1.45;;;0.60;;
23728;SDS011;12045;60.214;24.724;2023-05-29T14:00:04;2.45;;;0.60;;
23728;SDS011;12045;60.214;24.724;2023-05-29T14:02:32;1.77;;;0.60;;
23728;SDS011;12045;60.214;24.724;2023-05-29T14:05:00;1.05;;;0.50;;
23728;SDS011;12045;60.214;24.724;2023-05-29T14:07:28;1.33;;;0.70;;
23728;SDS011;12045;60.214;24.724;2023-05-29T14:09:57;1.42;;;0.60;;
23728;SDS011;12045;60.214;24.724;2023-05-29T14:12:25;0.50;;;0.50;;
23728;SDS011;12045;60.214;24.724;2023-05-29T14:14:53;0.68;;;0.50;;
23728;SDS011;12045;60.214;24.724;2023-05-29T14:17:20;1.45;;;0.75;;
23728;SDS011;12045;60.214;24.724;2023-05-29T14:19:48;1.20;;;0.60;;
23728;SDS011;12045;60.214;24.724;2023-05-29T14:22:17;0.43;;;0.40;;
23728;SDS011;12045;60.214;24.724;2023-05-29T14:24:45;0.85;;;0.60;;
23728;SDS011;12045;60.214;24.724;2023-05-29T14:27:13;1.17;;;0.47;;
23728;SDS011;12045;60.214;24.724;2023-05-29T14:29:41;1.75;;;0.60;;
23728;SDS011;12045;60.214;24.724;2023-05-29T14:32:09;0.32;;;0.32;;
23728;SDS011;12045;60.214;24.724;2023-05-29T14:34:36;1.70;;;0.40;;
23728;SDS011;12045;60.214;24.724;2023-05-29T14:37:04;1.17;;;0.70;;
23728;SDS011;12045;60.214;24.724;2023-05-29T14:39:32;3.08;;;0.65;;
23728;SDS011;12045;60.214;24.724;2023-05-29T14:42:00;1.25;;;0.70;;
23728;SDS011;12045;60.214;24.724;2023-05-29T14:44:29;0.95;;;0.63;;
23728;SDS011;12045;60.214;24.724;2023-05-29T14:46:57;1.25;;;0.77;;
23728;SDS011;12045;60.214;24.724;2023-05-29T14:49:25;1.30;;;0.52;;
23728;SDS011;12045;60.214;24.724;2023-05-29T14:51:56;0.70;;;0.57;;
23728;SDS011;12045;60.214;24.724;2023-05-29T14:54:24;2.05;;;0.70;;
23728;SDS011;12045;60.214;24.724;2023-05-29T14:56:52;1.45;;;0.60;;
23728;SDS011;12045;60.214;24.724;2023-05-29T14:59:20;0.90;;;0.68;;
23728;SDS011;12045;60.214;24.724;2023-05-29T15:01:48;2.90;;;0.65;;
23728;SDS011;12045;60.214;24.724;2023-05-29T15:04:16;0.93;;;0.57;;
23728;SDS011;12045;60.214;24.724;2023-05-29T15:06:44;1.15;;;0.60;;
23728;SDS011;12045;60.214;24.724;2023-05-29T15:09:32;1.27;;;0.60;;
23728;SDS011;12045;60.214;24.724;2023-05-29T15:12:00;1.25;;;0.52;;